sensor_id;sensor_type;location;lat;lon;timestamp;P1;durP1;ratioP1;P2;durP2;ratioP2
20161;SDS011;51382;53.180;15.414;2023-07-29T00:08:42;42.60;;;6.90;;
20161;SDS011;51382;53.180;15.414;2023-07-29T00:23:54;31.80;;;6.00;;
20161;SDS011;51382;53.180;15.414;2023-07-29T00:39:07;36.30;;;6.10;;
20161;SDS011;51382;53.180;15.414;2023-07-29T00:54:19;28.10;;;5.10;;
20161;SDS011;51382;53.180;15.414;2023-07-29T01:09:36;28.50;;;5.00;;
20161;SDS011;51382;53.180;15.414;2023-07-29T01:24:52;28.60;;;5.40;;
20161;SDS011;51382;53.180;15.414;2023-07-29T01:40:05;31.90;;;5.90;;
20161;SDS011;51382;53.180;15.414;2023-07-29T01:55:19;36.80;;;5.40;;
20161;SDS011;51382;53.180;15.414;2023-07-29T02:10:31;122.90;;;14.40;;
20161;SDS011;51382;53.180;15.414;2023-07-29T02:25:48;124.50;;;14.50;;
20161;SDS011;51382;53.180;15.414;2023-07-29T02:40:57;38.60;;;6.00;;
20161;SDS011;51382;53.180;15.414;2023-07-29T02:56:08;78.80;;;10.00;;
20161;SDS011;51382;53.180;15.414;2023-07-29T03:11:20;24.40;;;4.20;;
20161;SDS011;51382;53.180;15.414;2023-07-29T03:26:26;118.80;;;14.00;;
20161;SDS011;51382;53.180;15.414;2023-07-29T03:41:38;22.60;;;4.60;;
20161;SDS011;51382;53.180;15.414;2023-07-29T03:56:49;115.60;;;13.60;;
20161;SDS011;51382;53.180;15.414;2023-07-29T04:12:01;30.80;;;5.10;;
20161;SDS011;51382;53.180;15.414;2023-07-29T04:27:12;35.90;;;5.30;;
20161;SDS011;51382;53.180;15.414;2023-07-29T04:42:24;31.20;;;5.00;;
20161;SDS011;51382;53.180;15.414;2023-07-29T04:57:35;74.60;;;9.50;;
20161;SDS011;51382;53.180;15.414;2023-07-29T05:12:47;27.60;;;4.70;;
20161;SDS011;51382;53.180;15.414;2023-07-29T05:27:58;32.40;;;4.70;;
20161;SDS011;51382;53.180;15.414;2023-07-29T05:43:10;30.80;;;5.00;;
20161;SDS011;51382;53.180;15.414;2023-07-29T05:58:21;35.30;;;6.20;;
20161;SDS011;51382;53.180;15.414;2023-07-29T06:13:33;32.00;;;5.20;;
20161;SDS011;51382;53.180;15.414;2023-07-29T06:28:47;21.30;;;4.00;;
20161;SDS011;51382;53.180;15.414;2023-07-29T06:43:58;22.60;;;4.10;;
20161;SDS011;51382;53.180;15.414;2023-07-29T06:59:10;58.40;;;7.60;;
20161;SDS011;51382;53.180;15.414;2023-07-29T07:14:21;25.20;;;3.90;;
20161;SDS011;51382;53.180;15.414;2023-07-29T07:29:32;26.50;;;3.80;;
20161;SDS011;51382;53.180;15.414;2023-07-29T07:44:44;35.10;;;5.10;;
20161;SDS011;51382;53.180;15.414;2023-07-29T07:59:55;27.30;;;4.60;;
20161;SDS011;51382;53.180;15.414;2023-07-29T08:15:17;21.70;;;3.80;;
20161;SDS011;51382;53.180;15.414;2023-07-29T08:30:28;31.50;;;4.50;;
20161;SDS011;51382;53.180;15.414;2023-07-29T08:45:41;74.40;;;8.30;;
20161;SDS011;51382;53.180;15.414;2023-07-29T09:00:53;32.30;;;4.70;;
20161;SDS011;51382;53.180;15.414;2023-07-29T09:16:08;23.00;;;3.20;;
20161;SDS011;51382;53.180;15.414;2023-07-29T09:31:21;20.00;;;2.80;;
20161;SDS011;51382;53.180;15.414;2023-07-29T09:46:36;29.90;;;4.10;;
20161;SDS011;51382;53.180;15.414;2023-07-29T10:01:47;34.90;;;4.80;;
20161;SDS011;51382;53.180;15.414;2023-07-29T10:16:59;38.30;;;5.20;;
20161;SDS011;51382;53.180;15.414;2023-07-29T10:32:13;31.20;;;4.60;;
20161;SDS011;51382;53.180;15.414;2023-07-29T10:47:26;32.30;;;5.30;;
20161;SDS011;51382;53.180;15.414;2023-07-29T11:02:39;79.10;;;28.20;;
20161;SDS011;51382;53.180;15.414;2023-07-29T11:17:52;48.60;;;6.60;;
20161;SDS011;51382;53.180;15.414;2023-07-29T11:33:04;55.70;;;7.30;;
20161;SDS011;51382;53.180;15.414;2023-07-29T11:48:15;41.10;;;6.20;;
20161;SDS011;51382;53.180;15.414;2023-07-29T12:03:27;33.00;;;5.10;;
20161;SDS011;51382;53.180;15.414;2023-07-29T12:18:38;37.30;;;5.00;;
20161;SDS011;51382;53.180;15.414;2023-07-29T12:33:49;42.90;;;6.10;;
20161;SDS011;51382;53.180;15.414;2023-07-29T12:49:07;51.30;;;7.50;;
20161;SDS011;51382;53.180;15.414;2023-07-29T13:04:18;49.20;;;6.80;;
20161;SDS011;51382;53.180;15.414;2023-07-29T13:19:29;38.30;;;5.00;;
20161;SDS011;51382;53.180;15.414;2023-07-29T13:34:40;42.70;;;5.90;;
20161;SDS011;51382;53.180;15.414;2023-07-29T13:49:52;33.30;;;4.70;;
20161;SDS011;51382;53.180;15.414;2023-07-29T14:05:03;38.20;;;4.90;;
20161;SDS011;51382;53.180;15.414;2023-07-29T16:18:42;262.70;;;22.70;;
20161;SDS011;51382;53.180;15.414;2023-07-29T16:33:55;103.40;;;9.20;;
20161;SDS011;51382;53.180;15.414;2023-07-29T16:49:03;77.70;;;7.30;;
20161;SDS011;51382;53.180;15.414;2023-07-29T17:04:15;109.60;;;9.90;;
20161;SDS011;51382;53.180;15.414;2023-07-29T17:19:22;105.70;;;9.50;;
20161;SDS011;51382;53.180;15.414;2023-07-29T17:34:32;112.10;;;10.50;;
20161;SDS011;51382;53.180;15.414;2023-07-29T17:49:44;131.20;;;19.20;;
20161;SDS011;51382;53.180;15.414;2023-07-29T18:04:57;88.50;;;13.80;;
20161;SDS011;51382;53.180;15.414;2023-07-29T18:20:14;90.20;;;11.10;;
20161;SDS011;51382;53.180;15.414;2023-07-29T18:35:26;74.60;;;7.20;;
20161;SDS011;51382;53.180;15.414;2023-07-29T18:50:32;78.60;;;11.40;;
20161;SDS011;51382;53.180;15.414;2023-07-29T19:05:43;109.30;;;18.50;;
20161;SDS011;51382;53.180;15.414;2023-07-29T19:20:52;108.50;;;12.80;;
20161;SDS011;51382;53.180;15.414;2023-07-29T19:36:07;136.70;;;20.20;;
20161;SDS011;51382;53.180;15.414;2023-07-29T19:51:14;102.70;;;9.80;;
20161;SDS011;51382;53.180;15.414;2023-07-29T20:06:32;206.40;;;19.50;;
20161;SDS011;51382;53.180;15.414;2023-07-29T20:21:45;288.90;;;26.00;;
20161;SDS011;51382;53.180;15.414;2023-07-29T20:37:11;225.50;;;19.60;;
20161;SDS011;51382;53.180;15.414;2023-07-29T20:52:26;245.20;;;22.20;;
20161;SDS011;51382;53.180;15.414;2023-07-29T21:07:32;100.70;;;12.50;;
20161;SDS011;51382;53.180;15.414;2023-07-29T21:22:46;114.50;;;9.40;;
20161;SDS011;51382;53.180;15.414;2023-07-29T21:37:57;198.10;;;17.20;;
20161;SDS011;51382;53.180;15.414;2023-07-29T21:53:04;110.50;;;12.30;;
20161;SDS011;51382;53.180;15.414;2023-07-29T22:08:16;148.90;;;15.50;;
20161;SDS011;51382;53.180;15.414;2023-07-29T22:23:29;101.10;;;11.70;;
20161;SDS011;51382;53.180;15.414;2023-07-29T22:38:42;197.10;;;16.00;;
20161;SDS011;51382;53.180;15.414;2023-07-29T22:53:57;103.90;;;11.50;;
20161;SDS011;51382;53.180;15.414;2023-07-29T23:09:11;98.50;;;12.10;;
20161;SDS011;51382;53.180;15.414;2023-07-29T23:24:27;119.30;;;14.30;;
20161;SDS011;51382;53.180;15.414;2023-07-29T23:39:34;128.10;;;13.90;;
20161;SDS011;51382;53.180;15.414;2023-07-29T23:54:51;83.20;;;10.40;;
